createdAt,value
2019-05-28T00:00:01.962Z,135.27
2019-05-28T00:02:25.719Z,77.97
2019-05-28T00:04:56.082Z,71.50
2019-05-28T00:07:29.684Z,89.43
2019-05-28T00:09:59.998Z,53.27
2019-05-28T00:12:30.459Z,43.80
2019-05-28T00:15:01.158Z,49.90
2019-05-28T00:17:33.072Z,54.53
2019-05-28T00:20:03.583Z,47.13
2019-05-28T00:22:34.926Z,69.60
2019-05-28T00:25:06.411Z,101.00
2019-05-28T00:27:36.742Z,142.60
2019-05-28T00:30:19.049Z,141.67
2019-05-28T00:32:41.105Z,92.13
2019-05-28T00:35:11.996Z,35.77
2019-05-28T00:37:42.773Z,52.30
2019-05-28T00:40:13.450Z,48.00
2019-05-28T00:42:43.931Z,76.60
2019-05-28T00:45:15.004Z,95.10
2019-05-28T00:47:45.332Z,207.90
2019-05-28T00:50:16.480Z,231.70
2019-05-28T00:52:46.836Z,327.77
2019-05-28T00:55:18.666Z,375.17
2019-05-28T00:57:50.363Z,351.10
2019-05-28T01:00:36.934Z,374.50
2019-05-28T01:03:06.020Z,381.07
2019-05-28T01:05:36.628Z,409.43
2019-05-28T01:08:07.299Z,402.87
2019-05-28T01:10:38.259Z,347.17
2019-05-28T01:13:08.659Z,309.30
2019-05-28T01:15:38.966Z,334.33
2019-05-28T01:18:09.473Z,347.63
2019-05-28T01:20:39.864Z,386.23
2019-05-28T01:23:10.201Z,349.93
2019-05-28T01:25:41.278Z,392.43
2019-05-28T01:28:11.809Z,382.97
2019-05-28T01:30:54.714Z,430.87
2019-05-28T01:33:14.608Z,351.40
2019-05-28T01:35:45.302Z,345.57
2019-05-28T01:38:16.619Z,309.57
2019-05-28T01:40:47.171Z,252.33
2019-05-28T01:43:17.511Z,285.80
2019-05-28T01:45:48.256Z,347.47
2019-05-28T01:48:18.695Z,326.10
2019-05-28T01:50:49.028Z,354.00
2019-05-28T01:53:19.471Z,363.03
2019-05-28T01:55:50.296Z,419.47
2019-05-28T01:58:20.596Z,372.40
2019-05-28T02:00:51.188Z,318.23
2019-05-28T02:03:21.958Z,327.33
2019-05-28T02:05:53.276Z,337.77
2019-05-28T02:08:23.639Z,304.50
2019-05-28T02:10:54.228Z,329.00
2019-05-28T02:13:24.556Z,332.70
2019-05-28T02:15:55.370Z,335.97
2019-05-28T02:18:25.670Z,373.50
2019-05-28T02:20:56.104Z,371.83
2019-05-28T02:23:26.693Z,369.87
2019-05-28T02:25:57.123Z,371.17
2019-05-28T02:28:27.492Z,355.00
2019-05-28T02:30:58.153Z,370.70
2019-05-28T02:33:28.486Z,350.37
2019-05-28T02:35:59.307Z,327.73
2019-05-28T02:38:29.929Z,385.57
2019-05-28T02:41:00.805Z,364.30
2019-05-28T02:43:31.148Z,358.80
2019-05-28T02:46:02.876Z,317.37
2019-05-28T02:48:33.219Z,200.53
2019-05-28T02:51:05.111Z,176.13
2019-05-28T02:53:35.820Z,170.57
2019-05-28T02:56:06.414Z,210.73
2019-05-28T02:58:37.383Z,247.13
2019-05-28T03:01:10.811Z,322.93
2019-05-28T03:03:43.846Z,346.90
2019-05-28T03:06:15.220Z,390.33
2019-05-28T03:08:48.601Z,334.90
2019-05-28T03:11:18.980Z,333.67
2019-05-28T03:13:49.969Z,296.30
2019-05-28T03:16:21.961Z,206.20
2019-05-28T03:18:53.761Z,284.93
2019-05-28T03:21:26.734Z,338.80
2019-05-28T03:23:59.631Z,349.77
2019-05-28T03:26:30.029Z,344.63
2019-05-28T03:29:00.541Z,353.20
2019-05-28T03:31:31.240Z,345.50
2019-05-28T03:34:03.004Z,345.57
2019-05-28T03:36:35.018Z,317.33
2019-05-28T03:39:07.440Z,260.47
2019-05-28T03:41:38.062Z,207.10
2019-05-28T03:44:08.365Z,141.10
2019-05-28T03:46:39.024Z,153.90
2019-05-28T03:49:09.659Z,167.00
2019-05-28T03:51:40.056Z,129.43
2019-05-28T03:54:10.404Z,106.07
2019-05-28T03:56:40.700Z,73.93
2019-05-28T03:59:11.408Z,75.47
2019-05-28T04:01:41.961Z,62.50
2019-05-28T04:04:12.294Z,50.17
2019-05-28T04:06:43.010Z,66.47
2019-05-28T04:09:13.789Z,75.00
2019-05-28T04:11:45.220Z,150.50
2019-05-28T04:14:16.188Z,143.10
2019-05-28T04:16:46.782Z,124.90
2019-05-28T04:19:17.185Z,187.80
2019-05-28T04:21:47.740Z,202.73
2019-05-28T04:24:18.163Z,170.20
2019-05-28T04:26:48.933Z,173.67
2019-05-28T04:29:19.336Z,181.53
2019-05-28T04:31:49.795Z,216.57
2019-05-28T04:34:20.451Z,80.67
2019-05-28T04:36:51.212Z,99.23
2019-05-28T04:39:21.508Z,101.57
2019-05-28T04:41:51.940Z,113.37
2019-05-28T04:44:22.700Z,96.63
2019-05-28T04:46:53.099Z,116.73
2019-05-28T04:49:23.414Z,111.27
2019-05-28T04:51:54.105Z,148.97
2019-05-28T04:54:25.693Z,158.27
2019-05-28T04:56:56.247Z,194.30
2019-05-28T04:59:26.590Z,194.87
2019-05-28T05:01:57.000Z,241.93
2019-05-28T05:04:28.921Z,295.00
2019-05-28T05:06:59.379Z,325.10
2019-05-28T05:09:29.745Z,299.93
2019-05-28T05:12:00.165Z,307.17
2019-05-28T05:14:30.822Z,283.37
2019-05-28T05:17:01.265Z,278.87
2019-05-28T05:19:31.886Z,402.50
2019-05-28T05:22:02.387Z,351.53
2019-05-28T05:24:32.768Z,448.80
2019-05-28T05:27:03.406Z,501.90
2019-05-28T05:29:33.764Z,543.03
2019-05-28T05:32:04.604Z,492.80
2019-05-28T05:34:34.970Z,408.00
2019-05-28T05:37:05.404Z,419.10
2019-05-28T05:39:36.341Z,537.13
2019-05-28T05:42:06.831Z,511.10
2019-05-28T05:44:38.283Z,536.37
2019-05-28T05:47:08.869Z,552.97
2019-05-28T05:49:39.639Z,557.37
2019-05-28T05:52:10.071Z,591.17
2019-05-28T05:54:40.806Z,616.13
2019-05-28T05:57:11.593Z,744.10
2019-05-28T05:59:41.975Z,688.00
2019-05-28T06:02:12.604Z,561.30
2019-05-28T06:04:42.976Z,534.07
2019-05-28T06:07:13.719Z,574.77
2019-05-28T06:09:44.154Z,549.10
2019-05-28T06:12:14.503Z,541.33
2019-05-28T06:14:45.304Z,571.70
2019-05-28T06:17:16.090Z,571.20
2019-05-28T06:19:47.521Z,595.83
2019-05-28T06:22:17.919Z,566.77
2019-05-28T06:24:48.495Z,702.57
2019-05-28T06:27:19.536Z,626.93
2019-05-28T06:29:50.154Z,634.13
2019-05-28T06:32:20.614Z,624.03
2019-05-28T06:34:51.322Z,634.30
2019-05-28T06:37:21.695Z,639.00
2019-05-28T06:39:52.036Z,641.90
2019-05-28T06:42:22.491Z,669.37
2019-05-28T06:44:53.235Z,627.57
2019-05-28T06:47:23.530Z,654.17
2019-05-28T06:49:53.902Z,632.13
2019-05-28T06:52:24.564Z,642.80
2019-05-28T06:54:55.142Z,619.83
2019-05-28T06:57:25.540Z,638.00
2019-05-28T06:59:56.053Z,606.80
2019-05-28T07:02:29.975Z,608.93
2019-05-28T07:05:00.359Z,576.30
2019-05-28T07:07:30.678Z,633.33
2019-05-28T07:10:00.984Z,609.43
2019-05-28T07:12:31.754Z,612.37
2019-05-28T07:15:02.173Z,631.83
2019-05-28T07:17:32.728Z,619.73
2019-05-28T07:20:04.471Z,617.20
2019-05-28T07:22:35.246Z,625.67
2019-05-28T07:25:05.844Z,620.90
2019-05-28T07:27:36.645Z,630.47
2019-05-28T07:30:07.588Z,631.97
2019-05-28T07:32:38.023Z,624.40
2019-05-28T07:35:08.899Z,634.63
2019-05-28T07:37:39.353Z,661.50
2019-05-28T07:40:10.087Z,640.70
2019-05-28T07:42:40.696Z,626.27
2019-05-28T07:45:11.707Z,631.57
2019-05-28T07:47:42.002Z,645.53
2019-05-28T07:50:12.892Z,632.60
2019-05-28T07:52:43.353Z,693.27
2019-05-28T07:55:13.819Z,657.97
2019-05-28T07:57:44.131Z,610.40
2019-05-28T08:00:14.898Z,665.87
2019-05-28T08:02:45.227Z,609.63
2019-05-28T08:05:17.217Z,579.47
2019-05-28T08:07:47.834Z,598.10
2019-05-28T08:10:18.305Z,610.83
2019-05-28T08:12:48.947Z,601.87
2019-05-28T08:15:19.361Z,578.33
2019-05-28T08:17:49.750Z,144.47
2019-05-28T08:20:20.407Z,128.55
2019-05-28T08:22:51.100Z,188.07
2019-05-28T08:25:41.521Z,171.10
2019-05-28T08:27:53.944Z,160.00
2019-05-28T08:30:24.661Z,183.30
2019-05-28T08:32:55.070Z,176.45
2019-05-28T08:35:25.779Z,215.12
2019-05-28T08:37:56.416Z,272.70
2019-05-28T08:40:26.810Z,343.93
2019-05-28T08:42:57.628Z,289.12
2019-05-28T08:45:28.168Z,313.75
2019-05-28T08:47:58.942Z,312.25
2019-05-28T08:50:34.266Z,336.25
2019-05-28T08:53:01.743Z,304.52
2019-05-28T08:55:32.477Z,305.90
2019-05-28T08:58:03.223Z,367.02
2019-05-28T09:00:43.451Z,387.93
2019-05-28T09:03:13.911Z,347.50
2019-05-28T09:05:44.366Z,331.07
2019-05-28T09:08:14.846Z,366.25
2019-05-28T09:10:45.468Z,327.20
2019-05-28T09:13:16.104Z,323.38
2019-05-28T09:15:46.795Z,340.12
2019-05-28T09:18:17.606Z,337.90
2019-05-28T09:20:48.955Z,414.97
2019-05-28T09:23:19.469Z,432.85
2019-05-28T09:25:50.255Z,407.32
2019-05-28T09:28:30.245Z,428.10
2019-05-28T09:30:52.689Z,317.57
2019-05-28T09:33:23.397Z,337.68
2019-05-28T09:36:07.146Z,335.82
2019-05-28T09:38:25.840Z,351.05
2019-05-28T09:40:56.501Z,346.62
2019-05-28T09:43:27.031Z,351.77
2019-05-28T09:45:57.895Z,400.77
2019-05-28T09:48:28.265Z,430.30
2019-05-28T09:50:58.613Z,420.38
2019-05-28T09:53:29.263Z,335.98
2019-05-28T09:55:59.617Z,329.65
2019-05-28T09:58:30.012Z,341.55
2019-05-28T10:01:00.982Z,351.48
2019-05-28T10:03:31.513Z,386.43
2019-05-28T10:06:16.189Z,437.68
2019-05-28T10:08:34.415Z,436.50
2019-05-28T10:11:05.156Z,406.15
2019-05-28T10:13:40.532Z,425.85
2019-05-28T10:16:08.187Z,380.80
2019-05-28T10:18:38.479Z,421.90
2019-05-28T10:21:18.191Z,417.70
2019-05-28T10:23:41.614Z,424.02
2019-05-28T10:26:11.983Z,417.68
2019-05-28T10:28:43.957Z,450.45
2019-05-28T10:31:14.474Z,440.10
2019-05-28T10:33:44.773Z,427.43
2019-05-28T10:36:32.162Z,392.32
2019-05-28T10:38:47.547Z,470.00
2019-05-28T10:41:18.062Z,470.02
2019-05-28T10:43:48.515Z,386.98
2019-05-28T10:46:19.193Z,389.93
2019-05-28T10:48:49.626Z,416.65
2019-05-28T10:51:20.353Z,377.85
2019-05-28T10:53:50.697Z,420.38
2019-05-28T10:56:21.517Z,414.32
2019-05-28T10:58:52.296Z,423.50
2019-05-28T11:01:22.639Z,384.73
2019-05-28T11:03:52.989Z,407.92
2019-05-28T11:06:23.436Z,415.05
2019-05-28T11:08:53.895Z,455.63
2019-05-28T11:11:24.418Z,422.10
2019-05-28T11:13:55.143Z,451.05
2019-05-28T11:16:26.539Z,382.48
2019-05-28T11:18:56.861Z,366.45
2019-05-28T11:21:27.610Z,426.30
2019-05-28T11:23:58.151Z,420.70
2019-05-28T11:26:28.904Z,415.50
2019-05-28T11:28:59.287Z,402.55
2019-05-28T11:31:29.696Z,413.63
2019-05-28T11:34:00.098Z,411.35
2019-05-28T11:36:30.567Z,399.75
2019-05-28T11:39:00.894Z,423.28
2019-05-28T11:41:42.077Z,432.80
2019-05-28T11:44:05.565Z,420.52
2019-05-28T11:46:35.956Z,432.73
2019-05-28T11:49:06.601Z,435.57
2019-05-28T11:51:37.268Z,434.50
2019-05-28T11:54:07.742Z,415.15
2019-05-28T11:56:38.463Z,392.80
2019-05-28T11:59:09.188Z,427.62
2019-05-28T12:01:39.560Z,392.92
2019-05-28T12:04:09.954Z,398.13
2019-05-28T12:06:40.958Z,410.73
2019-05-28T12:09:11.274Z,427.13
2019-05-28T12:11:41.600Z,446.63
2019-05-28T12:14:12.320Z,416.25
2019-05-28T12:16:43.615Z,438.93
2019-05-28T12:19:14.119Z,462.27
2019-05-28T12:21:44.713Z,438.75
2019-05-28T12:24:15.316Z,411.45
2019-05-28T12:26:46.142Z,443.97
2019-05-28T12:29:16.514Z,470.32
2019-05-28T12:31:46.904Z,451.02
2019-05-28T12:34:17.499Z,418.13
2019-05-28T12:36:47.827Z,382.02
2019-05-28T12:39:18.186Z,449.48
2019-05-28T12:42:01.616Z,369.77
2019-05-28T12:44:21.177Z,318.67
2019-05-28T12:46:51.477Z,363.23
2019-05-28T12:49:22.214Z,427.55
2019-05-28T12:51:52.878Z,387.75
2019-05-28T12:54:23.289Z,337.23
2019-05-28T12:56:53.961Z,405.00
2019-05-28T12:59:24.314Z,297.93
2019-05-28T13:01:55.286Z,490.80
2019-05-28T13:04:25.656Z,214.40
2019-05-28T13:06:55.965Z,195.80
2019-05-28T13:09:26.408Z,320.82
2019-05-28T13:11:56.837Z,184.05
2019-05-28T13:14:27.417Z,175.60
2019-05-28T13:16:58.141Z,204.13
2019-05-28T13:19:28.839Z,224.20
2019-05-28T13:21:59.306Z,248.57
2019-05-28T13:24:29.911Z,169.10
2019-05-28T13:27:16.953Z,171.13
2019-05-28T13:29:33.931Z,283.02
2019-05-28T13:32:08.348Z,225.97
2019-05-28T13:34:36.837Z,287.75
2019-05-28T13:37:07.615Z,299.30
2019-05-28T13:39:38.433Z,366.02
2019-05-28T13:42:08.730Z,289.77
2019-05-28T13:44:39.201Z,362.10
2019-05-28T13:47:09.925Z,339.10
2019-05-28T13:49:40.587Z,285.35
2019-05-28T13:52:12.552Z,390.85
2019-05-28T13:54:43.560Z,330.55
2019-05-28T13:57:13.854Z,323.38
2019-05-28T13:59:44.201Z,298.87
2019-05-28T14:02:14.971Z,292.87
2019-05-28T14:04:45.598Z,319.48
2019-05-28T14:07:16.156Z,522.27
2019-05-28T14:09:46.543Z,317.13
2019-05-28T14:12:17.102Z,314.00
2019-05-28T14:14:47.487Z,301.23
2019-05-28T14:17:17.792Z,305.27
2019-05-28T14:19:48.142Z,377.57
2019-05-28T14:22:33.037Z,380.45
2019-05-28T14:24:50.934Z,379.20
2019-05-28T14:27:21.299Z,417.40
2019-05-28T14:29:52.049Z,335.48
2019-05-28T14:32:22.601Z,230.07
2019-05-28T14:34:53.097Z,308.47
2019-05-28T14:37:23.461Z,349.32
2019-05-28T14:39:53.932Z,344.20
2019-05-28T14:42:24.564Z,258.30
2019-05-28T14:44:54.962Z,326.85
2019-05-28T14:47:25.311Z,330.83
2019-05-28T14:49:55.983Z,394.37
2019-05-28T14:52:26.701Z,322.45
2019-05-28T14:54:57.061Z,395.95
2019-05-28T14:57:27.615Z,306.52
2019-05-28T14:59:58.169Z,423.28
2019-05-28T15:02:28.510Z,304.50
2019-05-28T15:04:59.095Z,530.55
2019-05-28T15:07:29.422Z,364.42
2019-05-28T15:10:00.076Z,374.37
2019-05-28T15:12:30.485Z,359.77
2019-05-28T15:15:00.779Z,423.23
2019-05-28T15:17:31.292Z,351.05
2019-05-28T15:20:02.037Z,384.13
2019-05-28T15:22:32.435Z,539.80
2019-05-28T15:25:03.098Z,302.77
2019-05-28T15:27:33.915Z,373.30
2019-05-28T15:30:04.919Z,303.62
2019-05-28T15:32:35.445Z,398.30
2019-05-28T15:35:07.065Z,448.02
2019-05-28T15:37:38.461Z,445.75
2019-05-28T15:40:10.058Z,327.82
2019-05-28T15:42:40.397Z,366.33
2019-05-28T15:45:11.497Z,400.65
2019-05-28T15:47:44.941Z,403.00
2019-05-28T15:50:15.349Z,359.27
2019-05-28T15:52:45.832Z,310.13
2019-05-28T15:55:16.478Z,564.78
2019-05-28T15:57:46.841Z,448.80
2019-05-28T16:00:20.554Z,822.60
2019-05-28T16:02:51.219Z,597.65
2019-05-28T16:05:21.721Z,399.10
2019-05-28T16:07:52.087Z,463.72
2019-05-28T16:10:22.466Z,472.67
2019-05-28T16:12:52.893Z,374.77
2019-05-28T16:15:24.160Z,363.45
2019-05-28T16:17:55.023Z,325.32
2019-05-28T16:20:25.599Z,374.95
2019-05-28T16:22:56.103Z,439.80
2019-05-28T16:25:26.619Z,713.30
2019-05-28T16:27:57.420Z,371.43
2019-05-28T16:30:28.818Z,439.55
2019-05-28T16:32:59.213Z,362.32
2019-05-28T16:35:30.017Z,328.58
2019-05-28T16:38:00.397Z,374.10
2019-05-28T16:40:30.801Z,377.32
2019-05-28T16:43:01.180Z,339.60
2019-05-28T16:45:31.576Z,409.73
2019-05-28T16:48:02.348Z,382.25
2019-05-28T16:50:32.711Z,366.12
2019-05-28T16:53:03.419Z,381.35
2019-05-28T16:55:34.442Z,407.65
2019-05-28T16:58:04.813Z,328.32
2019-05-28T17:00:36.331Z,321.82
2019-05-28T17:03:07.006Z,318.40
2019-05-28T17:05:37.638Z,302.48
2019-05-28T17:08:07.934Z,568.23
2019-05-28T17:10:38.604Z,285.98
2019-05-28T17:13:09.105Z,332.90
2019-05-28T17:15:39.496Z,230.03
2019-05-28T17:18:09.810Z,341.73
2019-05-28T17:20:40.192Z,523.85
2019-05-28T17:23:10.855Z,190.88
2019-05-28T17:25:41.340Z,169.62
2019-05-28T17:28:11.775Z,606.63
2019-05-28T17:30:42.547Z,77.15
2019-05-28T17:33:14.484Z,81.95
2019-05-28T17:35:45.133Z,252.25
2019-05-28T17:38:15.913Z,33.70
2019-05-28T17:40:48.833Z,33.83
2019-05-28T17:43:18.427Z,23.53
2019-05-28T17:45:48.798Z,38.63
2019-05-28T17:48:20.279Z,87.47
2019-05-28T17:50:53.142Z,82.17
2019-05-28T17:53:23.256Z,188.67
2019-05-28T17:55:53.701Z,113.80
2019-05-28T17:58:24.321Z,80.10
2019-05-28T18:00:55.084Z,18.70
2019-05-28T18:03:25.418Z,62.27
2019-05-28T18:05:55.917Z,54.20
2019-05-28T18:08:29.396Z,212.00
2019-05-28T18:11:04.199Z,97.53
2019-05-28T18:13:33.868Z,216.30
2019-05-28T18:16:04.749Z,12.97
2019-05-28T18:18:35.291Z,34.50
2019-05-28T18:21:05.996Z,69.30
2019-05-28T18:23:36.536Z,17.97
2019-05-28T18:26:06.973Z,42.33
2019-05-28T18:28:37.821Z,78.07
2019-05-28T18:31:08.228Z,22.27
2019-05-28T18:33:38.719Z,6.87
2019-05-28T18:36:10.344Z,14.27
2019-05-28T18:38:43.268Z,41.63
2019-05-28T18:41:21.529Z,49.40
2019-05-28T18:43:45.147Z,9.47
2019-05-28T18:46:15.744Z,12.23
2019-05-28T18:48:46.025Z,8.53
2019-05-28T18:51:16.769Z,11.33
2019-05-28T18:53:47.328Z,10.97
2019-05-28T18:56:18.399Z,6.83
2019-05-28T18:58:48.890Z,10.03
2019-05-28T19:01:19.291Z,8.53
2019-05-28T19:03:50.034Z,11.63
2019-05-28T19:06:20.306Z,11.50
2019-05-28T19:08:50.900Z,10.53
2019-05-28T19:11:36.528Z,22.17
2019-05-28T19:13:53.477Z,9.47
2019-05-28T19:16:23.892Z,14.77
2019-05-28T19:18:55.422Z,12.87
2019-05-28T19:21:26.082Z,8.93
2019-05-28T19:23:56.617Z,11.00
2019-05-28T19:26:27.032Z,32.13
2019-05-28T19:28:57.366Z,15.70
2019-05-28T19:31:29.094Z,64.37
2019-05-28T19:34:01.095Z,12.07
2019-05-28T19:36:32.479Z,14.97
2019-05-28T19:39:03.548Z,11.60
2019-05-28T19:41:35.131Z,10.33
2019-05-28T19:44:05.493Z,11.43
2019-05-28T19:46:36.198Z,7.13
2019-05-28T19:49:06.965Z,9.80
2019-05-28T19:51:37.345Z,13.87
2019-05-28T19:54:07.856Z,8.13
2019-05-28T19:56:38.143Z,7.30
2019-05-28T19:59:08.943Z,11.63
2019-05-28T20:01:39.567Z,59.50
2019-05-28T20:04:09.984Z,92.43
2019-05-28T20:06:40.615Z,17.33
2019-05-28T20:09:11.016Z,10.53
2019-05-28T20:11:41.384Z,8.73
2019-05-28T20:14:12.733Z,11.87
2019-05-28T20:16:43.410Z,8.63
2019-05-28T20:19:13.707Z,11.30
2019-05-28T20:21:43.985Z,7.03
2019-05-28T20:24:14.599Z,7.40
2019-05-28T20:26:45.429Z,11.40
2019-05-28T20:29:16.003Z,9.63
2019-05-28T20:31:46.553Z,9.03
2019-05-28T20:34:16.918Z,8.37
2019-05-28T20:36:47.197Z,7.73
2019-05-28T20:39:18.074Z,6.67
2019-05-28T20:41:48.428Z,6.60
2019-05-28T20:44:18.779Z,10.93
2019-05-28T20:46:49.246Z,9.63
2019-05-28T20:49:19.863Z,6.33
2019-05-28T20:51:52.099Z,10.53
2019-05-28T20:54:22.435Z,6.60
2019-05-28T20:56:54.587Z,8.20
2019-05-28T20:59:25.158Z,8.70
2019-05-28T21:01:58.005Z,7.70
2019-05-28T21:04:28.451Z,8.33
2019-05-28T21:06:59.188Z,9.27
2019-05-28T21:09:29.603Z,10.00
2019-05-28T21:11:59.881Z,6.73
2019-05-28T21:14:30.525Z,9.40
2019-05-28T21:17:01.289Z,7.77
2019-05-28T21:19:31.709Z,10.43
2019-05-28T21:22:02.020Z,10.73
2019-05-28T21:24:32.740Z,8.83
2019-05-28T21:27:03.008Z,7.13
2019-05-28T21:29:33.328Z,8.60
2019-05-28T21:32:03.885Z,6.67
2019-05-28T21:34:34.591Z,9.13
2019-05-28T21:37:05.846Z,7.10
2019-05-28T21:39:36.175Z,6.40
2019-05-28T21:42:06.648Z,9.03
2019-05-28T21:44:37.244Z,8.00
2019-05-28T21:47:07.694Z,7.27
2019-05-28T21:49:38.190Z,11.33
2019-05-28T21:52:08.917Z,7.77
2019-05-28T21:54:39.374Z,12.07
2019-05-28T21:57:09.765Z,6.43
2019-05-28T21:59:40.511Z,6.30
2019-05-28T22:02:11.406Z,6.97
2019-05-28T22:04:41.879Z,6.77
2019-05-28T22:07:12.427Z,13.87
2019-05-28T22:09:42.716Z,8.67
2019-05-28T22:12:13.278Z,7.00
2019-05-28T22:14:43.794Z,11.40
2019-05-28T22:17:14.295Z,8.00
2019-05-28T22:19:44.939Z,6.37
2019-05-28T22:22:15.756Z,6.30
2019-05-28T22:24:46.035Z,11.07
2019-05-28T22:27:16.698Z,7.57
2019-05-28T22:29:47.354Z,8.37
2019-05-28T22:32:18.148Z,7.67
2019-05-28T22:34:48.754Z,5.73
2019-05-28T22:37:19.254Z,9.57
2019-05-28T22:39:49.517Z,6.20
2019-05-28T22:42:19.839Z,8.30
2019-05-28T22:44:50.486Z,13.10
2019-05-28T22:47:20.909Z,5.43
2019-05-28T22:49:51.226Z,11.30
2019-05-28T22:52:21.942Z,9.37
2019-05-28T22:54:52.456Z,8.17
2019-05-28T22:57:22.770Z,5.73
2019-05-28T22:59:53.465Z,6.00
2019-05-28T23:02:24.190Z,6.70
2019-05-28T23:04:54.483Z,8.93
2019-05-28T23:07:27.381Z,6.97
2019-05-28T23:09:57.354Z,6.10
2019-05-28T23:12:28.044Z,7.60
2019-05-28T23:14:59.724Z,7.43
2019-05-28T23:17:30.103Z,6.57
2019-05-28T23:20:00.788Z,6.70
2019-05-28T23:22:31.303Z,9.53
2019-05-28T23:25:01.587Z,7.70
2019-05-28T23:27:32.063Z,8.50
2019-05-28T23:30:11.043Z,7.73
2019-05-28T23:32:34.907Z,12.10
2019-05-28T23:35:06.552Z,11.47
2019-05-28T23:37:37.130Z,6.23
2019-05-28T23:40:09.174Z,9.93
2019-05-28T23:42:40.151Z,6.07
2019-05-28T23:45:13.957Z,10.50
2019-05-28T23:47:44.779Z,8.27
2019-05-28T23:50:18.074Z,8.93
2019-05-28T23:52:47.756Z,6.30
2019-05-28T23:55:18.199Z,11.63
2019-05-28T23:57:48.927Z,8.13
